sensor_id;sensor_type;location;lat;lon;timestamp;temperature;humidity
24452;DHT22;13350;50.984;5.822;2023-09-08T00:01:55;17.00;99.90
24452;DHT22;13350;50.984;5.822;2023-09-08T00:04:22;17.00;99.90
24452;DHT22;13350;50.984;5.822;2023-09-08T00:06:49;17.10;99.90
24452;DHT22;13350;50.984;5.822;2023-09-08T00:09:16;17.10;99.90
24452;DHT22;13350;50.984;5.822;2023-09-08T00:11:43;17.00;99.90
24452;DHT22;13350;50.984;5.822;2023-09-08T00:14:10;16.90;99.90
24452;DHT22;13350;50.984;5.822;2023-09-08T00:16:37;16.90;99.90
24452;DHT22;13350;50.984;5.822;2023-09-08T00:19:09;16.90;99.90
24452;DHT22;13350;50.984;5.822;2023-09-08T00:21:37;16.80;99.90
24452;DHT22;13350;50.984;5.822;2023-09-08T00:24:04;16.80;99.90
24452;DHT22;13350;50.984;5.822;2023-09-08T00:26:31;16.90;99.90
24452;DHT22;13350;50.984;5.822;2023-09-08T00:28:59;16.80;99.90
24452;DHT22;13350;50.984;5.822;2023-09-08T00:31:26;16.70;99.90
24452;DHT22;13350;50.984;5.822;2023-09-08T00:33:52;16.60;99.90
24452;DHT22;13350;50.984;5.822;2023-09-08T00:36:21;16.60;99.90
24452;DHT22;13350;50.984;5.822;2023-09-08T00:38:48;16.50;99.90
24452;DHT22;13350;50.984;5.822;2023-09-08T00:41:15;16.50;99.90
24452;DHT22;13350;50.984;5.822;2023-09-08T00:43:42;16.50;99.90
24452;DHT22;13350;50.984;5.822;2023-09-08T00:46:09;16.60;99.90
24452;DHT22;13350;50.984;5.822;2023-09-08T00:48:36;16.70;99.90
24452;DHT22;13350;50.984;5.822;2023-09-08T00:51:03;16.60;99.90
24452;DHT22;13350;50.984;5.822;2023-09-08T00:53:32;16.50;99.90
24452;DHT22;13350;50.984;5.822;2023-09-08T00:55:59;16.40;99.90
24452;DHT22;13350;50.984;5.822;2023-09-08T00:58:26;16.30;99.90
24452;DHT22;13350;50.984;5.822;2023-09-08T01:00:54;16.20;99.90
24452;DHT22;13350;50.984;5.822;2023-09-08T01:03:23;16.20;99.90
24452;DHT22;13350;50.984;5.822;2023-09-08T01:05:50;16.10;99.90
24452;DHT22;13350;50.984;5.822;2023-09-08T01:08:17;16.00;99.90
24452;DHT22;13350;50.984;5.822;2023-09-08T01:10:46;16.10;99.90
24452;DHT22;13350;50.984;5.822;2023-09-08T01:13:13;16.10;99.90
24452;DHT22;13350;50.984;5.822;2023-09-08T01:15:40;16.10;99.90
24452;DHT22;13350;50.984;5.822;2023-09-08T01:18:07;16.10;99.90
24452;DHT22;13350;50.984;5.822;2023-09-08T01:20:35;16.10;99.90
24452;DHT22;13350;50.984;5.822;2023-09-08T01:23:11;16.00;99.90
24452;DHT22;13350;50.984;5.822;2023-09-08T01:25:45;16.00;99.90
24452;DHT22;13350;50.984;5.822;2023-09-08T01:28:13;16.00;99.90
24452;DHT22;13350;50.984;5.822;2023-09-08T01:30:41;16.00;99.90
24452;DHT22;13350;50.984;5.822;2023-09-08T01:33:08;16.00;99.90
24452;DHT22;13350;50.984;5.822;2023-09-08T01:35:35;16.10;99.90
24452;DHT22;13350;50.984;5.822;2023-09-08T01:38:02;16.10;99.90
24452;DHT22;13350;50.984;5.822;2023-09-08T01:40:30;16.20;99.90
24452;DHT22;13350;50.984;5.822;2023-09-08T01:42:58;16.20;99.90
24452;DHT22;13350;50.984;5.822;2023-09-08T01:45:25;16.30;99.90
24452;DHT22;13350;50.984;5.822;2023-09-08T01:47:52;16.20;99.90
24452;DHT22;13350;50.984;5.822;2023-09-08T01:50:19;16.10;99.90
24452;DHT22;13350;50.984;5.822;2023-09-08T01:52:47;16.00;99.90
24452;DHT22;13350;50.984;5.822;2023-09-08T01:55:15;16.00;99.90
24452;DHT22;13350;50.984;5.822;2023-09-08T01:57:42;16.00;99.90
24452;DHT22;13350;50.984;5.822;2023-09-08T02:00:11;15.90;99.90
24452;DHT22;13350;50.984;5.822;2023-09-08T02:02:38;15.80;99.90
24452;DHT22;13350;50.984;5.822;2023-09-08T02:05:06;15.80;99.90
24452;DHT22;13350;50.984;5.822;2023-09-08T02:07:33;15.80;99.90
24452;DHT22;13350;50.984;5.822;2023-09-08T02:10:00;15.90;99.90
24452;DHT22;13350;50.984;5.822;2023-09-08T02:12:27;16.00;99.90
24452;DHT22;13350;50.984;5.822;2023-09-08T02:14:54;16.10;99.90
24452;DHT22;13350;50.984;5.822;2023-09-08T02:17:23;16.20;99.90
24452;DHT22;13350;50.984;5.822;2023-09-08T02:19:50;16.20;99.90
24452;DHT22;13350;50.984;5.822;2023-09-08T02:22:17;16.20;99.90
24452;DHT22;13350;50.984;5.822;2023-09-08T02:24:44;16.10;99.90
24452;DHT22;13350;50.984;5.822;2023-09-08T02:27:11;16.00;99.90
24452;DHT22;13350;50.984;5.822;2023-09-08T02:29:38;15.90;99.90
24452;DHT22;13350;50.984;5.822;2023-09-08T02:32:05;15.80;99.90
24452;DHT22;13350;50.984;5.822;2023-09-08T02:34:35;15.90;99.90
24452;DHT22;13350;50.984;5.822;2023-09-08T02:37:03;15.80;99.90
24452;DHT22;13350;50.984;5.822;2023-09-08T02:39:30;15.70;99.90
24452;DHT22;13350;50.984;5.822;2023-09-08T02:41:57;15.80;99.90
24452;DHT22;13350;50.984;5.822;2023-09-08T02:44:24;15.90;99.90
24452;DHT22;13350;50.984;5.822;2023-09-08T02:46:52;15.80;99.90
24452;DHT22;13350;50.984;5.822;2023-09-08T02:49:19;15.70;99.90
24452;DHT22;13350;50.984;5.822;2023-09-08T02:51:48;15.60;99.90
24452;DHT22;13350;50.984;5.822;2023-09-08T02:54:15;15.50;99.90
24452;DHT22;13350;50.984;5.822;2023-09-08T02:56:42;15.60;99.90
24452;DHT22;13350;50.984;5.822;2023-09-08T02:59:09;15.50;99.90
24452;DHT22;13350;50.984;5.822;2023-09-08T03:01:36;15.50;99.90
24452;DHT22;13350;50.984;5.822;2023-09-08T03:04:03;15.50;99.90
24452;DHT22;13350;50.984;5.822;2023-09-08T03:06:30;15.40;99.90
24452;DHT22;13350;50.984;5.822;2023-09-08T03:08:59;15.40;99.90
24452;DHT22;13350;50.984;5.822;2023-09-08T03:11:26;15.30;99.90
24452;DHT22;13350;50.984;5.822;2023-09-08T03:13:54;15.30;99.90
24452;DHT22;13350;50.984;5.822;2023-09-08T03:16:21;15.40;99.90
24452;DHT22;13350;50.984;5.822;2023-09-08T03:18:48;15.50;99.90
24452;DHT22;13350;50.984;5.822;2023-09-08T03:21:15;15.50;99.90
24452;DHT22;13350;50.984;5.822;2023-09-08T03:23:42;15.50;99.90
24452;DHT22;13350;50.984;5.822;2023-09-08T03:26:11;15.50;99.90
24452;DHT22;13350;50.984;5.822;2023-09-08T03:28:38;15.40;99.90
24452;DHT22;13350;50.984;5.822;2023-09-08T03:31:05;15.40;99.90
24452;DHT22;13350;50.984;5.822;2023-09-08T03:33:33;15.60;99.90
24452;DHT22;13350;50.984;5.822;2023-09-08T03:36:00;15.50;99.90
24452;DHT22;13350;50.984;5.822;2023-09-08T03:38:27;15.40;99.90
24452;DHT22;13350;50.984;5.822;2023-09-08T03:40:54;15.40;99.90
24452;DHT22;13350;50.984;5.822;2023-09-08T03:43:22;15.40;99.90
24452;DHT22;13350;50.984;5.822;2023-09-08T03:45:49;15.40;99.90
24452;DHT22;13350;50.984;5.822;2023-09-08T03:48:16;15.30;99.90
24452;DHT22;13350;50.984;5.822;2023-09-08T03:50:43;15.20;99.90
24452;DHT22;13350;50.984;5.822;2023-09-08T03:53:11;15.30;99.90
24452;DHT22;13350;50.984;5.822;2023-09-08T03:55:38;15.30;99.90
24452;DHT22;13350;50.984;5.822;2023-09-08T03:58:05;15.20;99.90
24452;DHT22;13350;50.984;5.822;2023-09-08T04:00:34;15.10;99.90
24452;DHT22;13350;50.984;5.822;2023-09-08T04:03:01;15.00;99.90
24452;DHT22;13350;50.984;5.822;2023-09-08T04:05:28;14.90;99.90
24452;DHT22;13350;50.984;5.822;2023-09-08T04:07:55;14.90;99.90
24452;DHT22;13350;50.984;5.822;2023-09-08T04:10:22;14.80;99.90
24452;DHT22;13350;50.984;5.822;2023-09-08T04:12:48;14.80;99.90
24452;DHT22;13350;50.984;5.822;2023-09-08T04:15:16;14.80;99.90
24452;DHT22;13350;50.984;5.822;2023-09-08T04:17:44;14.80;99.90
24452;DHT22;13350;50.984;5.822;2023-09-08T04:20:12;14.80;99.90
24452;DHT22;13350;50.984;5.822;2023-09-08T04:22:40;14.90;99.90
24452;DHT22;13350;50.984;5.822;2023-09-08T04:25:07;14.80;99.90
24452;DHT22;13350;50.984;5.822;2023-09-08T04:27:35;14.80;99.90
24452;DHT22;13350;50.984;5.822;2023-09-08T04:30:03;14.80;99.90
24452;DHT22;13350;50.984;5.822;2023-09-08T04:32:30;14.70;99.90
24452;DHT22;13350;50.984;5.822;2023-09-08T04:34:58;14.70;99.90
24452;DHT22;13350;50.984;5.822;2023-09-08T04:37:25;14.70;99.90
24452;DHT22;13350;50.984;5.822;2023-09-08T04:39:52;14.70;99.90
24452;DHT22;13350;50.984;5.822;2023-09-08T04:42:19;14.70;99.90
24452;DHT22;13350;50.984;5.822;2023-09-08T04:44:46;14.80;99.90
24452;DHT22;13350;50.984;5.822;2023-09-08T04:47:13;14.80;99.90
24452;DHT22;13350;50.984;5.822;2023-09-08T04:49:40;14.90;99.90
24452;DHT22;13350;50.984;5.822;2023-09-08T04:52:09;14.80;99.90
24452;DHT22;13350;50.984;5.822;2023-09-08T04:54:36;14.80;99.90
24452;DHT22;13350;50.984;5.822;2023-09-08T04:57:03;14.80;99.90
24452;DHT22;13350;50.984;5.822;2023-09-08T04:59:30;14.80;99.90
24452;DHT22;13350;50.984;5.822;2023-09-08T05:01:58;14.80;99.90
24452;DHT22;13350;50.984;5.822;2023-09-08T05:04:25;14.90;99.90
24452;DHT22;13350;50.984;5.822;2023-09-08T05:06:52;14.80;99.90
24452;DHT22;13350;50.984;5.822;2023-09-08T05:09:20;14.80;99.90
24452;DHT22;13350;50.984;5.822;2023-09-08T05:11:47;14.70;99.90
24452;DHT22;13350;50.984;5.822;2023-09-08T05:14:14;14.80;99.90
24452;DHT22;13350;50.984;5.822;2023-09-08T05:16:41;14.90;99.90
24452;DHT22;13350;50.984;5.822;2023-09-08T05:19:12;15.00;99.90
24452;DHT22;13350;50.984;5.822;2023-09-08T05:21:39;15.00;99.90
24452;DHT22;13350;50.984;5.822;2023-09-08T05:24:06;14.90;99.90
24452;DHT22;13350;50.984;5.822;2023-09-08T05:26:36;14.90;99.90
24452;DHT22;13350;50.984;5.822;2023-09-08T05:29:03;14.90;99.90
24452;DHT22;13350;50.984;5.822;2023-09-08T05:31:30;15.00;99.90
24452;DHT22;13350;50.984;5.822;2023-09-08T05:33:57;15.10;99.90
24452;DHT22;13350;50.984;5.822;2023-09-08T05:36:24;15.20;99.90
24452;DHT22;13350;50.984;5.822;2023-09-08T05:38:51;15.40;99.90
24452;DHT22;13350;50.984;5.822;2023-09-08T05:41:18;15.60;99.90
24452;DHT22;13350;50.984;5.822;2023-09-08T05:43:46;15.90;99.90
24452;DHT22;13350;50.984;5.822;2023-09-08T05:46:13;16.30;99.90
24452;DHT22;13350;50.984;5.822;2023-09-08T05:48:40;16.60;99.90
24452;DHT22;13350;50.984;5.822;2023-09-08T05:51:07;16.80;99.90
24452;DHT22;13350;50.984;5.822;2023-09-08T05:53:34;17.20;99.90
24452;DHT22;13350;50.984;5.822;2023-09-08T05:56:04;17.70;99.90
24452;DHT22;13350;50.984;5.822;2023-09-08T05:58:31;18.00;99.90
24452;DHT22;13350;50.984;5.822;2023-09-08T06:01:00;18.20;99.90
24452;DHT22;13350;50.984;5.822;2023-09-08T06:03:27;18.70;99.90
24452;DHT22;13350;50.984;5.822;2023-09-08T06:05:55;19.00;99.90
24452;DHT22;13350;50.984;5.822;2023-09-08T06:08:21;19.20;99.90
24452;DHT22;13350;50.984;5.822;2023-09-08T06:10:48;19.80;99.90
24452;DHT22;13350;50.984;5.822;2023-09-08T06:13:15;20.20;99.90
24452;DHT22;13350;50.984;5.822;2023-09-08T06:15:42;20.50;99.90
24452;DHT22;13350;50.984;5.822;2023-09-08T06:18:11;20.70;99.90
24452;DHT22;13350;50.984;5.822;2023-09-08T06:20:43;20.90;99.90
24452;DHT22;13350;50.984;5.822;2023-09-08T06:23:10;21.00;99.90
24452;DHT22;13350;50.984;5.822;2023-09-08T06:25:37;21.10;99.90
24452;DHT22;13350;50.984;5.822;2023-09-08T06:28:04;21.50;99.90
24452;DHT22;13350;50.984;5.822;2023-09-08T06:30:31;22.10;99.90
24452;DHT22;13350;50.984;5.822;2023-09-08T06:32:58;22.70;99.90
24452;DHT22;13350;50.984;5.822;2023-09-08T06:35:27;23.10;99.90
24452;DHT22;13350;50.984;5.822;2023-09-08T06:37:54;23.80;99.90
24452;DHT22;13350;50.984;5.822;2023-09-08T06:40:21;24.10;99.90
24452;DHT22;13350;50.984;5.822;2023-09-08T06:42:47;23.80;99.90
24452;DHT22;13350;50.984;5.822;2023-09-08T06:45:14;24.10;99.90
24452;DHT22;13350;50.984;5.822;2023-09-08T06:47:42;23.80;99.90
24452;DHT22;13350;50.984;5.822;2023-09-08T06:50:09;23.80;99.90
24452;DHT22;13350;50.984;5.822;2023-09-08T06:52:37;23.10;99.90
24452;DHT22;13350;50.984;5.822;2023-09-08T06:55:04;22.70;99.90
24452;DHT22;13350;50.984;5.822;2023-09-08T06:57:31;22.30;99.90
24452;DHT22;13350;50.984;5.822;2023-09-08T06:59:58;21.90;99.90
24452;DHT22;13350;50.984;5.822;2023-09-08T07:02:25;21.80;99.90
24452;DHT22;13350;50.984;5.822;2023-09-08T07:04:52;21.70;99.90
24452;DHT22;13350;50.984;5.822;2023-09-08T07:07:19;21.60;99.90
24452;DHT22;13350;50.984;5.822;2023-09-08T07:09:47;21.60;99.90
24452;DHT22;13350;50.984;5.822;2023-09-08T07:12:14;21.50;99.90
24452;DHT22;13350;50.984;5.822;2023-09-08T07:14:41;21.50;99.90
24452;DHT22;13350;50.984;5.822;2023-09-08T07:17:08;21.50;99.90
24452;DHT22;13350;50.984;5.822;2023-09-08T07:19:35;21.50;99.90
24452;DHT22;13350;50.984;5.822;2023-09-08T07:22:03;21.50;99.90
24452;DHT22;13350;50.984;5.822;2023-09-08T07:24:31;21.50;99.90
24452;DHT22;13350;50.984;5.822;2023-09-08T07:26:59;21.50;99.90
24452;DHT22;13350;50.984;5.822;2023-09-08T07:29:27;21.60;99.90
24452;DHT22;13350;50.984;5.822;2023-09-08T07:31:55;21.70;99.90
24452;DHT22;13350;50.984;5.822;2023-09-08T07:34:21;21.70;99.90
24452;DHT22;13350;50.984;5.822;2023-09-08T07:36:48;21.90;99.90
24452;DHT22;13350;50.984;5.822;2023-09-08T07:39:15;22.00;99.90
24452;DHT22;13350;50.984;5.822;2023-09-08T07:41:42;22.10;99.90
24452;DHT22;13350;50.984;5.822;2023-09-08T07:44:11;22.10;99.90
24452;DHT22;13350;50.984;5.822;2023-09-08T07:46:38;22.00;99.90
24452;DHT22;13350;50.984;5.822;2023-09-08T07:49:05;22.00;99.90
24452;DHT22;13350;50.984;5.822;2023-09-08T07:51:32;22.10;99.90
24452;DHT22;13350;50.984;5.822;2023-09-08T07:53:59;22.30;99.90
24452;DHT22;13350;50.984;5.822;2023-09-08T07:56:29;22.40;99.90
24452;DHT22;13350;50.984;5.822;2023-09-08T07:58:55;22.40;99.90
24452;DHT22;13350;50.984;5.822;2023-09-08T08:01:24;22.60;99.90
24452;DHT22;13350;50.984;5.822;2023-09-08T08:03:51;22.60;99.90
24452;DHT22;13350;50.984;5.822;2023-09-08T08:06:18;22.60;99.90
24452;DHT22;13350;50.984;5.822;2023-09-08T08:08:45;22.70;99.90
24452;DHT22;13350;50.984;5.822;2023-09-08T08:11:12;22.70;99.90
24452;DHT22;13350;50.984;5.822;2023-09-08T08:13:39;22.80;99.90
24452;DHT22;13350;50.984;5.822;2023-09-08T08:16:06;22.90;99.90
24452;DHT22;13350;50.984;5.822;2023-09-08T08:18:35;23.00;99.90
24452;DHT22;13350;50.984;5.822;2023-09-08T08:21:02;23.10;99.90
24452;DHT22;13350;50.984;5.822;2023-09-08T08:23:29;23.30;99.90
24452;DHT22;13350;50.984;5.822;2023-09-08T08:25:56;23.40;99.90
24452;DHT22;13350;50.984;5.822;2023-09-08T08:28:23;23.50;99.90
24452;DHT22;13350;50.984;5.822;2023-09-08T08:30:50;23.70;99.90
24452;DHT22;13350;50.984;5.822;2023-09-08T08:33:17;23.70;99.90
24452;DHT22;13350;50.984;5.822;2023-09-08T08:35:49;23.80;99.90
24452;DHT22;13350;50.984;5.822;2023-09-08T08:38:17;23.80;99.90
24452;DHT22;13350;50.984;5.822;2023-09-08T08:40:44;23.90;99.90
24452;DHT22;13350;50.984;5.822;2023-09-08T08:43:11;24.00;99.90
24452;DHT22;13350;50.984;5.822;2023-09-08T08:45:38;24.00;99.90
24452;DHT22;13350;50.984;5.822;2023-09-08T08:48:05;24.10;99.90
24452;DHT22;13350;50.984;5.822;2023-09-08T08:50:34;24.20;99.90
24452;DHT22;13350;50.984;5.822;2023-09-08T08:53:03;24.30;99.90
24452;DHT22;13350;50.984;5.822;2023-09-08T08:55:30;24.40;99.90
24452;DHT22;13350;50.984;5.822;2023-09-08T08:57:58;24.50;99.90
24452;DHT22;13350;50.984;5.822;2023-09-08T09:00:27;24.70;99.90
24452;DHT22;13350;50.984;5.822;2023-09-08T09:02:54;24.90;99.90
24452;DHT22;13350;50.984;5.822;2023-09-08T09:05:22;25.20;99.90
24452;DHT22;13350;50.984;5.822;2023-09-08T09:07:49;26.10;99.90
24452;DHT22;13350;50.984;5.822;2023-09-08T09:10:18;27.90;99.90
24452;DHT22;13350;50.984;5.822;2023-09-08T09:12:45;29.10;99.90
24452;DHT22;13350;50.984;5.822;2023-09-08T09:15:12;30.00;99.90
24452;DHT22;13350;50.984;5.822;2023-09-08T09:17:39;30.80;99.90
24452;DHT22;13350;50.984;5.822;2023-09-08T09:20:13;31.30;99.90
24452;DHT22;13350;50.984;5.822;2023-09-08T09:22:40;31.60;99.90
24452;DHT22;13350;50.984;5.822;2023-09-08T09:25:08;31.80;99.90
24452;DHT22;13350;50.984;5.822;2023-09-08T09:27:37;32.40;99.90
24452;DHT22;13350;50.984;5.822;2023-09-08T09:30:07;32.60;99.90
24452;DHT22;13350;50.984;5.822;2023-09-08T09:32:34;33.30;99.90
24452;DHT22;13350;50.984;5.822;2023-09-08T09:35:01;33.00;99.90
24452;DHT22;13350;50.984;5.822;2023-09-08T09:37:29;33.20;99.90
24452;DHT22;13350;50.984;5.822;2023-09-08T09:39:56;33.40;99.90
24452;DHT22;13350;50.984;5.822;2023-09-08T09:42:23;33.20;99.90
24452;DHT22;13350;50.984;5.822;2023-09-08T09:44:52;33.40;99.90
24452;DHT22;13350;50.984;5.822;2023-09-08T09:47:19;33.40;99.90
24452;DHT22;13350;50.984;5.822;2023-09-08T09:49:47;33.20;99.90
24452;DHT22;13350;50.984;5.822;2023-09-08T09:52:14;32.90;99.90
24452;DHT22;13350;50.984;5.822;2023-09-08T09:54:46;33.20;99.90
24452;DHT22;13350;50.984;5.822;2023-09-08T09:57:16;33.60;99.90
24452;DHT22;13350;50.984;5.822;2023-09-08T09:59:43;33.30;99.90
24452;DHT22;13350;50.984;5.822;2023-09-08T10:02:12;34.10;99.90
24452;DHT22;13350;50.984;5.822;2023-09-08T10:04:39;34.60;99.90
24452;DHT22;13350;50.984;5.822;2023-09-08T10:07:07;34.00;99.90
24452;DHT22;13350;50.984;5.822;2023-09-08T10:09:35;34.70;99.90
24452;DHT22;13350;50.984;5.822;2023-09-08T10:12:03;35.00;98.90
24452;DHT22;13350;50.984;5.822;2023-09-08T10:14:31;36.00;98.30
24452;DHT22;13350;50.984;5.822;2023-09-08T10:16:59;36.80;96.30
24452;DHT22;13350;50.984;5.822;2023-09-08T10:19:28;35.90;95.70
24452;DHT22;13350;50.984;5.822;2023-09-08T10:22:00;35.60;96.90
24452;DHT22;13350;50.984;5.822;2023-09-08T10:24:29;35.70;95.80
24452;DHT22;13350;50.984;5.822;2023-09-08T10:27:00;35.30;96.70
24452;DHT22;13350;50.984;5.822;2023-09-08T10:29:30;35.40;96.10
24452;DHT22;13350;50.984;5.822;2023-09-08T10:31:57;36.00;96.10
24452;DHT22;13350;50.984;5.822;2023-09-08T10:34:25;35.70;95.70
24452;DHT22;13350;50.984;5.822;2023-09-08T10:36:54;36.90;92.80
24452;DHT22;13350;50.984;5.822;2023-09-08T10:39:27;36.50;92.60
24452;DHT22;13350;50.984;5.822;2023-09-08T10:44:38;36.50;93.00
24452;DHT22;13350;50.984;5.822;2023-09-08T10:47:05;37.00;91.40
24452;DHT22;13350;50.984;5.822;2023-09-08T10:49:34;36.80;92.00
24452;DHT22;13350;50.984;5.822;2023-09-08T10:52:07;36.70;90.90
24452;DHT22;13350;50.984;5.822;2023-09-08T10:54:43;36.80;89.60
24452;DHT22;13350;50.984;5.822;2023-09-08T10:57:12;36.70;89.80
24452;DHT22;13350;50.984;5.822;2023-09-08T10:59:40;36.40;89.90
24452;DHT22;13350;50.984;5.822;2023-09-08T11:04:53;37.60;89.40
24452;DHT22;13350;50.984;5.822;2023-09-08T11:07:21;37.40;87.10
24452;DHT22;13350;50.984;5.822;2023-09-08T11:09:48;37.40;89.90
24452;DHT22;13350;50.984;5.822;2023-09-08T11:12:16;37.60;88.00
24452;DHT22;13350;50.984;5.822;2023-09-08T11:14:43;38.90;86.30
24452;DHT22;13350;50.984;5.822;2023-09-08T11:17:10;38.20;83.20
24452;DHT22;13350;50.984;5.822;2023-09-08T11:19:44;37.90;83.90
24452;DHT22;13350;50.984;5.822;2023-09-08T11:22:11;36.90;80.50
24452;DHT22;13350;50.984;5.822;2023-09-08T11:24:41;36.40;83.10
24452;DHT22;13350;50.984;5.822;2023-09-08T11:27:08;35.90;81.00
24452;DHT22;13350;50.984;5.822;2023-09-08T11:29:35;36.60;79.80
24452;DHT22;13350;50.984;5.822;2023-09-08T11:32:02;36.50;83.10
24452;DHT22;13350;50.984;5.822;2023-09-08T11:34:30;36.80;81.30
24452;DHT22;13350;50.984;5.822;2023-09-08T11:36:57;36.60;83.80
24452;DHT22;13350;50.984;5.822;2023-09-08T11:39:24;36.60;85.50
24452;DHT22;13350;50.984;5.822;2023-09-08T11:41:53;36.60;82.90
24452;DHT22;13350;50.984;5.822;2023-09-08T11:44:20;35.40;85.60
24452;DHT22;13350;50.984;5.822;2023-09-08T11:46:48;35.40;84.70
24452;DHT22;13350;50.984;5.822;2023-09-08T11:49:18;35.60;90.20
24452;DHT22;13350;50.984;5.822;2023-09-08T11:51:45;36.20;85.10
24452;DHT22;13350;50.984;5.822;2023-09-08T11:54:12;36.00;87.60
24452;DHT22;13350;50.984;5.822;2023-09-08T11:56:39;35.50;85.40
24452;DHT22;13350;50.984;5.822;2023-09-08T11:59:07;35.50;82.90
24452;DHT22;13350;50.984;5.822;2023-09-08T12:01:35;35.70;87.00
24452;DHT22;13350;50.984;5.822;2023-09-08T12:04:02;36.40;84.70
24452;DHT22;13350;50.984;5.822;2023-09-08T12:06:29;36.20;84.70
24452;DHT22;13350;50.984;5.822;2023-09-08T12:08:58;36.70;82.60
24452;DHT22;13350;50.984;5.822;2023-09-08T12:11:31;36.50;84.30
24452;DHT22;13350;50.984;5.822;2023-09-08T12:14:00;36.10;86.50
24452;DHT22;13350;50.984;5.822;2023-09-08T12:16:28;35.70;84.20
24452;DHT22;13350;50.984;5.822;2023-09-08T12:18:56;36.00;83.50
24452;DHT22;13350;50.984;5.822;2023-09-08T12:21:22;36.40;80.80
24452;DHT22;13350;50.984;5.822;2023-09-08T12:23:50;36.70;80.60
24452;DHT22;13350;50.984;5.822;2023-09-08T12:26:17;37.20;79.60
24452;DHT22;13350;50.984;5.822;2023-09-08T12:28:45;37.70;79.20
24452;DHT22;13350;50.984;5.822;2023-09-08T12:31:13;37.30;79.30
24452;DHT22;13350;50.984;5.822;2023-09-08T12:33:41;36.90;81.00
24452;DHT22;13350;50.984;5.822;2023-09-08T12:36:12;36.60;82.70
24452;DHT22;13350;50.984;5.822;2023-09-08T12:38:39;36.20;82.70
24452;DHT22;13350;50.984;5.822;2023-09-08T12:41:07;35.90;84.20
24452;DHT22;13350;50.984;5.822;2023-09-08T12:43:34;36.60;79.60
24452;DHT22;13350;50.984;5.822;2023-09-08T12:46:01;36.30;81.60
24452;DHT22;13350;50.984;5.822;2023-09-08T12:48:28;34.90;86.30
24452;DHT22;13350;50.984;5.822;2023-09-08T12:50:57;33.60;84.80
24452;DHT22;13350;50.984;5.822;2023-09-08T12:53:24;33.80;91.00
24452;DHT22;13350;50.984;5.822;2023-09-08T12:55:51;34.40;88.00
24452;DHT22;13350;50.984;5.822;2023-09-08T12:58:19;34.10;90.10
24452;DHT22;13350;50.984;5.822;2023-09-08T13:00:46;33.70;90.30
24452;DHT22;13350;50.984;5.822;2023-09-08T13:03:13;33.30;90.60
24452;DHT22;13350;50.984;5.822;2023-09-08T13:05:40;33.50;90.00
24452;DHT22;13350;50.984;5.822;2023-09-08T13:08:12;33.90;90.30
24452;DHT22;13350;50.984;5.822;2023-09-08T13:10:40;33.50;88.50
24452;DHT22;13350;50.984;5.822;2023-09-08T13:13:06;33.50;91.30
24452;DHT22;13350;50.984;5.822;2023-09-08T13:15:33;33.40;92.50
24452;DHT22;13350;50.984;5.822;2023-09-08T13:18:00;33.20;92.10
24452;DHT22;13350;50.984;5.822;2023-09-08T13:20:27;33.20;91.50
24452;DHT22;13350;50.984;5.822;2023-09-08T13:22:55;33.40;91.10
24452;DHT22;13350;50.984;5.822;2023-09-08T13:25:23;33.80;90.90
24452;DHT22;13350;50.984;5.822;2023-09-08T13:27:50;33.90;91.50
24452;DHT22;13350;50.984;5.822;2023-09-08T13:30:17;33.80;90.60
24452;DHT22;13350;50.984;5.822;2023-09-08T13:32:47;33.80;92.80
24452;DHT22;13350;50.984;5.822;2023-09-08T13:35:14;34.60;90.30
24452;DHT22;13350;50.984;5.822;2023-09-08T13:37:41;34.60;91.30
24452;DHT22;13350;50.984;5.822;2023-09-08T13:40:08;34.50;91.20
24452;DHT22;13350;50.984;5.822;2023-09-08T13:42:36;34.30;90.90
24452;DHT22;13350;50.984;5.822;2023-09-08T13:45:04;34.00;91.80
24452;DHT22;13350;50.984;5.822;2023-09-08T13:47:31;33.40;92.70
24452;DHT22;13350;50.984;5.822;2023-09-08T13:49:58;33.60;92.00
24452;DHT22;13350;50.984;5.822;2023-09-08T13:52:25;34.70;92.00
24452;DHT22;13350;50.984;5.822;2023-09-08T13:54:52;35.20;89.90
24452;DHT22;13350;50.984;5.822;2023-09-08T13:57:19;34.60;90.00
24452;DHT22;13350;50.984;5.822;2023-09-08T13:59:48;35.10;91.00
24452;DHT22;13350;50.984;5.822;2023-09-08T14:02:15;35.60;89.20
24452;DHT22;13350;50.984;5.822;2023-09-08T14:04:42;36.40;89.70
24452;DHT22;13350;50.984;5.822;2023-09-08T14:07:09;37.00;90.40
24452;DHT22;13350;50.984;5.822;2023-09-08T14:09:36;36.80;88.20
24452;DHT22;13350;50.984;5.822;2023-09-08T14:12:03;35.70;90.70
24452;DHT22;13350;50.984;5.822;2023-09-08T14:14:30;35.00;90.50
24452;DHT22;13350;50.984;5.822;2023-09-08T14:16:59;34.40;91.30
24452;DHT22;13350;50.984;5.822;2023-09-08T14:19:26;34.10;90.90
24452;DHT22;13350;50.984;5.822;2023-09-08T14:21:53;34.10;92.30
24452;DHT22;13350;50.984;5.822;2023-09-08T14:24:20;34.20;92.80
24452;DHT22;13350;50.984;5.822;2023-09-08T14:26:47;34.80;90.00
24452;DHT22;13350;50.984;5.822;2023-09-08T14:29:16;35.10;90.90
24452;DHT22;13350;50.984;5.822;2023-09-08T14:31:43;35.10;91.10
24452;DHT22;13350;50.984;5.822;2023-09-08T14:34:12;36.20;90.20
24452;DHT22;13350;50.984;5.822;2023-09-08T14:36:40;35.50;90.80
24452;DHT22;13350;50.984;5.822;2023-09-08T14:39:07;35.00;90.40
24452;DHT22;13350;50.984;5.822;2023-09-08T14:41:34;34.90;90.00
24452;DHT22;13350;50.984;5.822;2023-09-08T14:44:01;35.20;90.40
24452;DHT22;13350;50.984;5.822;2023-09-08T14:46:28;35.50;90.70
24452;DHT22;13350;50.984;5.822;2023-09-08T14:48:55;35.70;91.70
24452;DHT22;13350;50.984;5.822;2023-09-08T14:51:23;35.60;90.00
24452;DHT22;13350;50.984;5.822;2023-09-08T14:53:50;36.10;90.40
24452;DHT22;13350;50.984;5.822;2023-09-08T14:56:17;36.20;89.10
24452;DHT22;13350;50.984;5.822;2023-09-08T14:58:44;35.80;90.30
24452;DHT22;13350;50.984;5.822;2023-09-08T15:01:11;35.40;89.20
24452;DHT22;13350;50.984;5.822;2023-09-08T15:03:39;35.70;89.50
24452;DHT22;13350;50.984;5.822;2023-09-08T15:06:06;35.40;90.30
24452;DHT22;13350;50.984;5.822;2023-09-08T15:08:35;36.10;90.50
24452;DHT22;13350;50.984;5.822;2023-09-08T15:11:02;35.90;88.70
24452;DHT22;13350;50.984;5.822;2023-09-08T15:13:29;35.80;90.70
24452;DHT22;13350;50.984;5.822;2023-09-08T15:15:57;35.70;87.40
24452;DHT22;13350;50.984;5.822;2023-09-08T15:18:24;35.70;86.80
24452;DHT22;13350;50.984;5.822;2023-09-08T15:20:52;36.00;88.00
24452;DHT22;13350;50.984;5.822;2023-09-08T15:23:20;36.30;86.20
24452;DHT22;13350;50.984;5.822;2023-09-08T15:25:52;36.00;88.50
24452;DHT22;13350;50.984;5.822;2023-09-08T15:28:19;36.40;88.30
24452;DHT22;13350;50.984;5.822;2023-09-08T15:30:46;36.10;85.80
24452;DHT22;13350;50.984;5.822;2023-09-08T15:33:13;36.60;88.90
24452;DHT22;13350;50.984;5.822;2023-09-08T15:35:41;36.60;85.90
24452;DHT22;13350;50.984;5.822;2023-09-08T15:38:08;36.80;88.70